CYDP/YDP METAR and TAF weather

Enter ICAO airport designator
Station Type Date Time Source
CYDP METAR 2019/04/18 20:00 UTC NOAA

CYDP 182000Z 08005KT 360V090 15SM FEW250 M01/M03 A2991 RMK CI1 CI TR SLP131


Station Type Date Time Source
CYDP Decoded METAR 2019/04/18 20:00 UTC NOAA

Nain, Nfld, Canada (CYDP) 56-33N 061-41W 7M
Apr 18, 2019 - 04:00 PM EDT / 2019.04.18 2000 UTC
Wind: from the E (080 degrees) at 6 MPH (5 KT) (direction variable):0
Visibility: 15 mile(s):0
Sky conditions: mostly clear
Temperature: 30 F (-1 C)
Windchill: 23 F (-5 C):1
Dew Point: 26 F (-3 C)
Relative Humidity: 86%
Pressure (altimeter): 29.91 in. Hg (1012 hPa)
ob: CYDP 182000Z 08005KT 360V090 15SM FEW250 M01/M03 A2991 RMK CI1 CI TR SLP131
cycle: 20

Station Type Date Time Source
CYDP TAF 2019/04/18 20:00 UTC NOAA

TAF CYDP 181938Z 1820/1823 VRB03KT P6SM FEW240
RMK NXT FCST WILL BE ISSUED AT 190945Z

Example: see airport list